Buoy 33880

sailwx.info

Track history (hours):
 
Tides and Currents Weather Stations Pressure Air Temp Water Temp Dewpoint Dewpoint Depression Visibility Wind Speed Wind Dir Waves Ship Positions

Drifting buoy 33880

Last reported at 2017-Feb-28 01:00 UTC. Time now 2017-Feb-28 05:38 UTC.
Position S 39°34' W 038°08'.

Date/timePositionNaut miles runAvg speedWind from/ knotsBaromVisibWave heightAir tempDewpointWater temp
2017-Feb-28 01:00S 39°34' W 038°08'0 0.5
2017-Feb-28 00:00S 39°34' W 038°09'0 0.5
2017-Feb-27 23:00S 39°34' W 038°08'1 1.1
2017-Feb-27 22:00S 39°34' W 038°10'0 0.5
2017-Feb-27 21:00S 39°34' W 038°10'1 0.6
2017-Feb-27 20:00S 39°34' W 038°10'1 0.9
2017-Feb-27 19:00S 39°34' W 038°11'0 0.0
2017-Feb-27 18:00S 39°34' W 038°11'0 0.0
2017-Feb-27 17:00S 39°34' W 038°11'1 0.2
2017-Feb-27 10:00S 39°33' W 038°10'0 0.0
2017-Feb-27 09:00S 39°33' W 038°10'1 0.4
2017-Feb-27 07:00S 39°34' W 038°10'1 0.6
2017-Feb-27 05:00S 39°35' W 038°09'0 0.0
2017-Feb-27 04:00S 39°35' W 038°09'0 0.0
2017-Feb-27 03:00S 39°35' W 038°09'0 0.0
2017-Feb-27 01:00S 39°35' W 038°09'0 0.5
2017-Feb-27 00:00S 39°35' W 038°10'0 0.0
2017-Feb-26 23:00S 39°35' W 038°10'0 0.0
2017-Feb-26 22:00S 39°35' W 038°10'0 0.0
2017-Feb-26 21:00S 39°35' W 038°10'1 0.6
2017-Feb-26 19:00S 39°34' W 038°08'1 0.8
2017-Feb-26 18:00S 39°35' W 038°08'3 3.0
2017-Feb-26 17:00S 39°37' W 038°05'1 0.1
2017-Feb-26 12:00S 39°38' W 038°05'0 0.5
2017-Feb-26 11:00S 39°38' W 038°05'1 0.8
2017-Feb-26 10:00S 39°38' W 038°05'1 0.4
2017-Feb-26 08:00S 39°39' W 038°05'2 0.3
2017-Feb-26 03:00S 39°40' W 038°04'1 1.2
2017-Feb-26 02:00S 39°41' W 038°04'0 0.2
2017-Feb-25 23:00S 39°41' W 038°03'1 0.8
2017-Feb-25 22:00S 39°42' W 038°02'1 0.6
2017-Feb-25 21:00S 39°43' W 038°02'0 0.0
2017-Feb-25 20:00S 39°43' W 038°02'0 0.5
2017-Feb-25 19:00S 39°43' W 038°02'2 1.5
2017-Feb-25 18:00S 39°44' W 038°03'0 0.0
2017-Feb-25 17:00S 39°44' W 038°03'1 0.2
2017-Feb-25 12:00S 39°44' W 038°04'1 0.3
2017-Feb-25 10:00S 39°44' W 038°04'1 1.2
2017-Feb-25 09:00S 39°43' W 038°04'0 0.0
2017-Feb-25 08:00S 39°43' W 038°04'0 0.2
2017-Feb-25 06:00S 39°43' W 038°04'1 0.2
2017-Feb-25 01:00S 39°44' W 038°03'1 0.8
2017-Feb-25 00:00S 39°44' W 038°02'0 0.5
2017-Feb-24 23:00S 39°44' W 038°02'1 0.6
2017-Feb-24 22:00S 39°45' W 038°02'0 0.0
2017-Feb-24 21:00S 39°45' W 038°02'1 0.3
2017-Feb-24 19:00S 39°46' W 038°02'1 0.8
2017-Feb-24 18:00S 39°46' W 038°02'1 1.1
2017-Feb-24 17:00S 39°47' W 038°01'0 0.0
2017-Feb-24 12:00S 39°47' W 038°01'1 1.3
2017-Feb-24 11:00S 39°48' W 038°01'0 0.0
2017-Feb-24 10:00S 39°48' W 038°01'7 0.8
2017-Feb-24 02:00S 39°55' W 037°59'0 0.0
2017-Feb-24 01:00S 39°55' W 037°59'1 0.6
2017-Feb-24 00:00S 39°55' W 037°59'1 0.8
2017-Feb-23 23:00S 39°56' W 037°58'0 0.5
2017-Feb-23 22:00S 39°56' W 037°58'1 0.8
2017-Feb-23 21:00S 39°56' W 037°58'1 0.4
2017-Feb-23 19:00S 39°57' W 037°58'1 1.4
2017-Feb-23 18:00S 39°57' W 037°56'0 0.0
2017-Feb-23 16:00S 39°57' W 037°56'0 0.0
2017-Feb-23 13:00S 39°57' W 037°56'0 0.5
2017-Feb-23 12:00S 39°57' W 037°55'1 0.6
2017-Feb-23 11:00S 39°58' W 037°55'1 0.4
2017-Feb-23 08:00S 39°59' W 037°56'2 0.6
2017-Feb-23 05:00S 39°58' W 037°58'1 1.1
2017-Feb-23 04:00S 39°58' W 037°59'1 0.4
2017-Feb-23 01:00S 39°56' W 037°59'0 0.0
2017-Feb-23 00:00S 39°56' W 037°59'0 0.5
2017-Feb-22 23:00S 39°56' W 037°58'0 0.0
2017-Feb-22 22:00S 39°56' W 037°58'1 0.6
2017-Feb-22 20:00S 39°58' W 037°58'1 0.5
2017-Feb-22 18:00S 39°58' W 037°59'0 0.0
2017-Feb-22 16:00S 39°58' W 037°59'1 0.3
2017-Feb-22 11:00S 39°56' W 038°00'1 0.6
2017-Feb-22 10:00S 39°56' W 038°00'1 1.1
2017-Feb-22 09:00S 39°55' W 037°59'1 0.9
2017-Feb-22 08:00S 39°55' W 037°58'0 0.0
2017-Feb-22 06:00S 39°55' W 037°58'0 0.2
2017-Feb-22 04:00S 39°55' W 037°57'2 0.8
2017-Feb-22 02:00S 39°56' W 037°55'0 0.0
2017-Feb-22 01:00S 39°56' W 037°55'0 0.5
2017-Feb-22 00:00S 39°56' W 037°55'1 0.8
2017-Feb-21 23:00S 39°56' W 037°54'0 0.0
2017-Feb-21 22:00S 39°56' W 037°54'1 0.6
2017-Feb-21 21:00S 39°57' W 037°54'1 0.4
2017-Feb-21 19:00S 39°58' W 037°53'0 0.0
2017-Feb-21 18:00S 39°58' W 037°53'1 0.8
2017-Feb-21 17:00S 39°58' W 037°54'0 0.0
2017-Feb-21 16:00S 39°58' W 037°54'1 0.2
2017-Feb-21 12:00S 39°59' W 037°53'0 0.2
2017-Feb-21 10:00S 39°59' W 037°53'0 0.5
2017-Feb-21 09:00S 39°59' W 037°52'2 0.9
2017-Feb-21 07:00S 40°01' W 037°52'0 0.5
2017-Feb-21 06:00S 40°01' W 037°51'1 0.6
2017-Feb-21 04:00S 40°02' W 037°51'2 0.6
2017-Feb-21 01:00S 40°03' W 037°53'0 0.5
2017-Feb-21 00:00S 40°03' W 037°53'1 1.1
2017-Feb-20 23:00S 40°02' W 037°55'0 0.0
2017-Feb-20 22:00S 40°02' W 037°55'1 0.9
2017-Feb-20 21:00S 40°02' W 037°56'0 0.5
2017-Feb-20 20:00S 40°02' W 037°56'0 0.5
2017-Feb-20 19:00S 40°02' W 037°57'0 0.5
2017-Feb-20 18:00S 40°02' W 037°58'1 0.9
2017-Feb-20 17:00S 40°02' W 037°59'3 0.6
2017-Feb-20 12:00S 40°01' W 038°02'1 0.7
2017-Feb-20 10:00S 40°01' W 038°04'1 1.1
2017-Feb-20 09:00S 40°01' W 038°05'0 0.0
2017-Feb-20 08:00S 40°01' W 038°05'1 1.1
2017-Feb-20 07:00S 40°00' W 038°07'0 0.0
2017-Feb-20 06:00S 40°00' W 038°07'1 0.6
2017-Feb-20 05:00S 39°59' W 038°07'2 0.4
2017-Feb-20 01:00S 39°59' W 038°05'1 0.8
2017-Feb-20 00:00S 39°59' W 038°04'1 0.8
2017-Feb-19 23:00S 40°00' W 038°04'1 0.6
2017-Feb-19 22:00S 40°01' W 038°04'1 0.6
2017-Feb-19 21:00S 40°01' W 038°04'1 1.3
2017-Feb-19 20:00S 40°02' W 038°03'3 1.3
2017-Feb-19 18:00S 40°04' W 038°05'0 0.0
2017-Feb-19 17:00S 40°04' W 038°05'2 0.4
2017-Feb-19 12:00S 40°04' W 038°08'0 0.0
2017-Feb-19 11:00S 40°04' W 038°08'1 0.6
2017-Feb-19 10:00S 40°04' W 038°08'0 0.0
2017-Feb-19 09:00S 40°04' W 038°08'0 0.2
2017-Feb-19 06:00S 40°04' W 038°08'3 0.7
2017-Feb-19 02:00S 40°03' W 038°12'1 0.8
2017-Feb-19 01:00S 40°02' W 038°11'1 0.8
2017-Feb-19 00:00S 40°02' W 038°12'1 0.8
2017-Feb-18 23:00S 40°01' W 038°13'1 0.8
2017-Feb-18 22:00S 40°01' W 038°12'2 1.5
2017-Feb-18 21:00S 39°59' W 038°11'1 0.8
2017-Feb-18 20:00S 40°00' W 038°11'1 1.1
2017-Feb-18 19:00S 39°59' W 038°10'0 0.5
2017-Feb-18 18:00S 39°59' W 038°10'0 0.0
2017-Feb-18 17:00S 39°59' W 038°10'3 0.7
2017-Feb-18 13:00S 40°02' W 038°08'0 0.0
2017-Feb-18 12:00S 40°02' W 038°08'0 0.0
2017-Feb-18 11:00S 40°02' W 038°08'2 1.5
2017-Feb-18 10:00S 40°02' W 038°10'0 0.0
2017-Feb-18 09:00S 40°02' W 038°10'3 0.9
2017-Feb-18 06:00S 40°01' W 038°13'0 0.0
2017-Feb-18 05:00S 40°01' W 038°13'2 2.0
2017-Feb-18 04:00S 39°59' W 038°14'0 0.0
2017-Feb-18 03:00S 39°59' W 038°14'1 0.3
2017-Feb-18 01:00S 39°59' W 038°14'  
Track history (hours):
 
Tides and Currents Weather Stations Pressure Air Temp Water Temp Dewpoint Dewpoint Depression Visibility Wind Speed Wind Dir Waves Ship Positions

Drifting buoy 33880

Last reported at 2017-Feb-28 01:00 UTC. Time now 2017-Feb-28 05:38 UTC.
Position S 39°34' W 038°08'.

Date/timePositionNaut miles runAvg speedWind from/ knotsBaromVisibWave heightAir tempDewpointWater temp
2017-Feb-28 01:00S 39°34' W 038°08'0 0.5
2017-Feb-28 00:00S 39°34' W 038°09'0 0.5
2017-Feb-27 23:00S 39°34' W 038°08'1 1.1
2017-Feb-27 22:00S 39°34' W 038°10'0 0.5
2017-Feb-27 21:00S 39°34' W 038°10'1 0.6
2017-Feb-27 20:00S 39°34' W 038°10'1 0.9
2017-Feb-27 19:00S 39°34' W 038°11'0 0.0
2017-Feb-27 18:00S 39°34' W 038°11'0 0.0
2017-Feb-27 17:00S 39°34' W 038°11'1 0.2
2017-Feb-27 10:00S 39°33' W 038°10'0 0.0
2017-Feb-27 09:00S 39°33' W 038°10'1 0.4
2017-Feb-27 07:00S 39°34' W 038°10'1 0.6
2017-Feb-27 05:00S 39°35' W 038°09'0 0.0
2017-Feb-27 04:00S 39°35' W 038°09'0 0.0
2017-Feb-27 03:00S 39°35' W 038°09'0 0.0
2017-Feb-27 01:00S 39°35' W 038°09'0 0.5
2017-Feb-27 00:00S 39°35' W 038°10'0 0.0
2017-Feb-26 23:00S 39°35' W 038°10'0 0.0
2017-Feb-26 22:00S 39°35' W 038°10'0 0.0
2017-Feb-26 21:00S 39°35' W 038°10'1 0.6
2017-Feb-26 19:00S 39°34' W 038°08'1 0.8
2017-Feb-26 18:00S 39°35' W 038°08'3 3.0
2017-Feb-26 17:00S 39°37' W 038°05'1 0.1
2017-Feb-26 12:00S 39°38' W 038°05'0 0.5
2017-Feb-26 11:00S 39°38' W 038°05'1 0.8
2017-Feb-26 10:00S 39°38' W 038°05'1 0.4
2017-Feb-26 08:00S 39°39' W 038°05'2 0.3
2017-Feb-26 03:00S 39°40' W 038°04'1 1.2
2017-Feb-26 02:00S 39°41' W 038°04'0 0.2
2017-Feb-25 23:00S 39°41' W 038°03'1 0.8
2017-Feb-25 22:00S 39°42' W 038°02'1 0.6
2017-Feb-25 21:00S 39°43' W 038°02'0 0.0
2017-Feb-25 20:00S 39°43' W 038°02'0 0.5
2017-Feb-25 19:00S 39°43' W 038°02'2 1.5
2017-Feb-25 18:00S 39°44' W 038°03'0 0.0
2017-Feb-25 17:00S 39°44' W 038°03'1 0.2
2017-Feb-25 12:00S 39°44' W 038°04'1 0.3
2017-Feb-25 10:00S 39°44' W 038°04'1 1.2
2017-Feb-25 09:00S 39°43' W 038°04'0 0.0
2017-Feb-25 08:00S 39°43' W 038°04'0 0.2
2017-Feb-25 06:00S 39°43' W 038°04'1 0.2
2017-Feb-25 01:00S 39°44' W 038°03'1 0.8
2017-Feb-25 00:00S 39°44' W 038°02'0 0.5
2017-Feb-24 23:00S 39°44' W 038°02'1 0.6
2017-Feb-24 22:00S 39°45' W 038°02'0 0.0
2017-Feb-24 21:00S 39°45' W 038°02'1 0.3
2017-Feb-24 19:00S 39°46' W 038°02'1 0.8
2017-Feb-24 18:00S 39°46' W 038°02'1 1.1
2017-Feb-24 17:00S 39°47' W 038°01'0 0.0
2017-Feb-24 12:00S 39°47' W 038°01'1 1.3
2017-Feb-24 11:00S 39°48' W 038°01'0 0.0
2017-Feb-24 10:00S 39°48' W 038°01'7 0.8
2017-Feb-24 02:00S 39°55' W 037°59'0 0.0
2017-Feb-24 01:00S 39°55' W 037°59'1 0.6
2017-Feb-24 00:00S 39°55' W 037°59'1 0.8
2017-Feb-23 23:00S 39°56' W 037°58'0 0.5
2017-Feb-23 22:00S 39°56' W 037°58'1 0.8
2017-Feb-23 21:00S 39°56' W 037°58'1 0.4
2017-Feb-23 19:00S 39°57' W 037°58'1 1.4
2017-Feb-23 18:00S 39°57' W 037°56'0 0.0
2017-Feb-23 16:00S 39°57' W 037°56'0 0.0
2017-Feb-23 13:00S 39°57' W 037°56'0 0.5
2017-Feb-23 12:00S 39°57' W 037°55'1 0.6
2017-Feb-23 11:00S 39°58' W 037°55'1 0.4
2017-Feb-23 08:00S 39°59' W 037°56'2 0.6
2017-Feb-23 05:00S 39°58' W 037°58'1 1.1
2017-Feb-23 04:00S 39°58' W 037°59'1 0.4
2017-Feb-23 01:00S 39°56' W 037°59'0 0.0
2017-Feb-23 00:00S 39°56' W 037°59'0 0.5
2017-Feb-22 23:00S 39°56' W 037°58'0 0.0
2017-Feb-22 22:00S 39°56' W 037°58'1 0.6
2017-Feb-22 20:00S 39°58' W 037°58'1 0.5
2017-Feb-22 18:00S 39°58' W 037°59'0 0.0
2017-Feb-22 16:00S 39°58' W 037°59'1 0.3
2017-Feb-22 11:00S 39°56' W 038°00'1 0.6
2017-Feb-22 10:00S 39°56' W 038°00'1 1.1
2017-Feb-22 09:00S 39°55' W 037°59'1 0.9
2017-Feb-22 08:00S 39°55' W 037°58'0 0.0
2017-Feb-22 06:00S 39°55' W 037°58'0 0.2
2017-Feb-22 04:00S 39°55' W 037°57'2 0.8
2017-Feb-22 02:00S 39°56' W 037°55'0 0.0
2017-Feb-22 01:00S 39°56' W 037°55'0 0.5
2017-Feb-22 00:00S 39°56' W 037°55'1 0.8
2017-Feb-21 23:00S 39°56' W 037°54'0 0.0
2017-Feb-21 22:00S 39°56' W 037°54'1 0.6
2017-Feb-21 21:00S 39°57' W 037°54'1 0.4
2017-Feb-21 19:00S 39°58' W 037°53'0 0.0
2017-Feb-21 18:00S 39°58' W 037°53'1 0.8
2017-Feb-21 17:00S 39°58' W 037°54'0 0.0
2017-Feb-21 16:00S 39°58' W 037°54'1 0.2
2017-Feb-21 12:00S 39°59' W 037°53'0 0.2
2017-Feb-21 10:00S 39°59' W 037°53'0 0.5
2017-Feb-21 09:00S 39°59' W 037°52'2 0.9
2017-Feb-21 07:00S 40°01' W 037°52'0 0.5
2017-Feb-21 06:00S 40°01' W 037°51'1 0.6
2017-Feb-21 04:00S 40°02' W 037°51'2 0.6
2017-Feb-21 01:00S 40°03' W 037°53'0 0.5
2017-Feb-21 00:00S 40°03' W 037°53'1 1.1
2017-Feb-20 23:00S 40°02' W 037°55'0 0.0
2017-Feb-20 22:00S 40°02' W 037°55'1 0.9
2017-Feb-20 21:00S 40°02' W 037°56'0 0.5
2017-Feb-20 20:00S 40°02' W 037°56'0 0.5
2017-Feb-20 19:00S 40°02' W 037°57'0 0.5
2017-Feb-20 18:00S 40°02' W 037°58'1 0.9
2017-Feb-20 17:00S 40°02' W 037°59'3 0.6
2017-Feb-20 12:00S 40°01' W 038°02'1 0.7
2017-Feb-20 10:00S 40°01' W 038°04'1 1.1
2017-Feb-20 09:00S 40°01' W 038°05'0 0.0
2017-Feb-20 08:00S 40°01' W 038°05'1 1.1
2017-Feb-20 07:00S 40°00' W 038°07'0 0.0
2017-Feb-20 06:00S 40°00' W 038°07'1 0.6
2017-Feb-20 05:00S 39°59' W 038°07'2 0.4
2017-Feb-20 01:00S 39°59' W 038°05'1 0.8
2017-Feb-20 00:00S 39°59' W 038°04'1 0.8
2017-Feb-19 23:00S 40°00' W 038°04'1 0.6
2017-Feb-19 22:00S 40°01' W 038°04'1 0.6
2017-Feb-19 21:00S 40°01' W 038°04'1 1.3
2017-Feb-19 20:00S 40°02' W 038°03'3 1.3
2017-Feb-19 18:00S 40°04' W 038°05'0 0.0
2017-Feb-19 17:00S 40°04' W 038°05'2 0.4
2017-Feb-19 12:00S 40°04' W 038°08'0 0.0
2017-Feb-19 11:00S 40°04' W 038°08'1 0.6
2017-Feb-19 10:00S 40°04' W 038°08'0 0.0
2017-Feb-19 09:00S 40°04' W 038°08'0 0.2
2017-Feb-19 06:00S 40°04' W 038°08'3 0.7
2017-Feb-19 02:00S 40°03' W 038°12'1 0.8
2017-Feb-19 01:00S 40°02' W 038°11'1 0.8
2017-Feb-19 00:00S 40°02' W 038°12'1 0.8
2017-Feb-18 23:00S 40°01' W 038°13'1 0.8
2017-Feb-18 22:00S 40°01' W 038°12'2 1.5
2017-Feb-18 21:00S 39°59' W 038°11'1 0.8
2017-Feb-18 20:00S 40°00' W 038°11'1 1.1
2017-Feb-18 19:00S 39°59' W 038°10'0 0.5
2017-Feb-18 18:00S 39°59' W 038°10'0 0.0
2017-Feb-18 17:00S 39°59' W 038°10'3 0.7
2017-Feb-18 13:00S 40°02' W 038°08'0 0.0
2017-Feb-18 12:00S 40°02' W 038°08'0 0.0
2017-Feb-18 11:00S 40°02' W 038°08'2 1.5
2017-Feb-18 10:00S 40°02' W 038°10'0 0.0
2017-Feb-18 09:00S 40°02' W 038°10'3 0.9
2017-Feb-18 06:00S 40°01' W 038°13'0 0.0
2017-Feb-18 05:00S 40°01' W 038°13'2 2.0
2017-Feb-18 04:00S 39°59' W 038°14'0 0.0
2017-Feb-18 03:00S 39°59' W 038°14'1 0.3
2017-Feb-18 01:00S 39°59' W 038°14'  

Dump ship's entire track history